sensor_id;sensor_type;location;lat;lon;timestamp;P1;durP1;ratioP1;P2;durP2;ratioP2
35506;SDS011;36461;52.018;21.036;2023-03-19T00:00:40;30.60;;;17.60;;
35506;SDS011;36461;52.018;21.036;2023-03-19T00:03:27;29.80;;;16.60;;
35506;SDS011;36461;52.018;21.036;2023-03-19T00:05:55;29.70;;;17.40;;
35506;SDS011;36461;52.018;21.036;2023-03-19T00:08:24;31.00;;;17.20;;
35506;SDS011;36461;52.018;21.036;2023-03-19T00:10:52;29.40;;;16.70;;
35506;SDS011;36461;52.018;21.036;2023-03-19T00:13:20;29.90;;;17.30;;
35506;SDS011;36461;52.018;21.036;2023-03-19T00:15:48;32.00;;;17.50;;
35506;SDS011;36461;52.018;21.036;2023-03-19T00:18:16;31.20;;;17.20;;
35506;SDS011;36461;52.018;21.036;2023-03-19T00:20:44;30.60;;;17.30;;
35506;SDS011;36461;52.018;21.036;2023-03-19T00:23:12;30.80;;;17.10;;
35506;SDS011;36461;52.018;21.036;2023-03-19T00:25:40;30.70;;;17.10;;
35506;SDS011;36461;52.018;21.036;2023-03-19T00:28:08;28.60;;;16.60;;
35506;SDS011;36461;52.018;21.036;2023-03-19T00:30:36;32.60;;;17.90;;
35506;SDS011;36461;52.018;21.036;2023-03-19T00:33:05;31.80;;;18.30;;
35506;SDS011;36461;52.018;21.036;2023-03-19T00:35:33;32.90;;;18.70;;
35506;SDS011;36461;52.018;21.036;2023-03-19T00:38:02;29.90;;;16.90;;
35506;SDS011;36461;52.018;21.036;2023-03-19T00:40:31;33.20;;;16.70;;
35506;SDS011;36461;52.018;21.036;2023-03-19T00:42:59;29.50;;;17.20;;
35506;SDS011;36461;52.018;21.036;2023-03-19T00:45:28;34.20;;;16.60;;
35506;SDS011;36461;52.018;21.036;2023-03-19T00:47:57;32.60;;;16.90;;
35506;SDS011;36461;52.018;21.036;2023-03-19T00:50:25;31.40;;;17.10;;
35506;SDS011;36461;52.018;21.036;2023-03-19T00:52:53;30.00;;;17.00;;
35506;SDS011;36461;52.018;21.036;2023-03-19T00:55:22;30.70;;;16.60;;
35506;SDS011;36461;52.018;21.036;2023-03-19T00:57:52;30.00;;;16.00;;
35506;SDS011;36461;52.018;21.036;2023-03-19T01:00:19;28.50;;;16.90;;
35506;SDS011;36461;52.018;21.036;2023-03-19T01:02:48;32.50;;;17.30;;
35506;SDS011;36461;52.018;21.036;2023-03-19T01:05:16;31.50;;;17.90;;
35506;SDS011;36461;52.018;21.036;2023-03-19T01:07:44;30.40;;;17.90;;
35506;SDS011;36461;52.018;21.036;2023-03-19T01:10:12;26.40;;;16.30;;
35506;SDS011;36461;52.018;21.036;2023-03-19T01:12:40;31.80;;;17.40;;
35506;SDS011;36461;52.018;21.036;2023-03-19T01:15:08;30.40;;;16.40;;
35506;SDS011;36461;52.018;21.036;2023-03-19T01:17:37;27.60;;;15.90;;
35506;SDS011;36461;52.018;21.036;2023-03-19T01:20:06;27.80;;;16.30;;
35506;SDS011;36461;52.018;21.036;2023-03-19T01:22:39;29.10;;;17.60;;
35506;SDS011;36461;52.018;21.036;2023-03-19T01:25:11;34.80;;;18.60;;
35506;SDS011;36461;52.018;21.036;2023-03-19T01:27:46;33.60;;;18.80;;
35506;SDS011;36461;52.018;21.036;2023-03-19T01:30:14;35.70;;;19.70;;
35506;SDS011;36461;52.018;21.036;2023-03-19T01:33:06;36.70;;;19.80;;
35506;SDS011;36461;52.018;21.036;2023-03-19T01:35:55;37.30;;;20.20;;
35506;SDS011;36461;52.018;21.036;2023-03-19T01:38:29;40.40;;;21.30;;
35506;SDS011;36461;52.018;21.036;2023-03-19T01:41:01;37.10;;;21.10;;
35506;SDS011;36461;52.018;21.036;2023-03-19T01:43:29;40.00;;;21.00;;
35506;SDS011;36461;52.018;21.036;2023-03-19T01:49:13;42.20;;;19.70;;
35506;SDS011;36461;52.018;21.036;2023-03-19T01:51:45;38.10;;;20.60;;
35506;SDS011;36461;52.018;21.036;2023-03-19T01:54:28;35.50;;;19.60;;
35506;SDS011;36461;52.018;21.036;2023-03-19T01:57:18;33.50;;;19.20;;
35506;SDS011;36461;52.018;21.036;2023-03-19T02:00:00;37.80;;;20.10;;
35506;SDS011;36461;52.018;21.036;2023-03-19T02:02:51;35.80;;;20.20;;
35506;SDS011;36461;52.018;21.036;2023-03-19T02:05:46;36.10;;;19.10;;
35506;SDS011;36461;52.018;21.036;2023-03-19T02:08:19;32.30;;;19.00;;
35506;SDS011;36461;52.018;21.036;2023-03-19T02:10:50;35.20;;;19.10;;
35506;SDS011;36461;52.018;21.036;2023-03-19T02:13:22;36.10;;;19.00;;
35506;SDS011;36461;52.018;21.036;2023-03-19T02:15:50;31.10;;;17.20;;
35506;SDS011;36461;52.018;21.036;2023-03-19T02:18:18;33.10;;;17.40;;
35506;SDS011;36461;52.018;21.036;2023-03-19T02:23:32;31.90;;;17.60;;
35506;SDS011;36461;52.018;21.036;2023-03-19T02:26:13;30.40;;;16.70;;
35506;SDS011;36461;52.018;21.036;2023-03-19T02:28:58;29.70;;;16.60;;
35506;SDS011;36461;52.018;21.036;2023-03-19T02:31:30;29.50;;;16.00;;
35506;SDS011;36461;52.018;21.036;2023-03-19T02:33:59;29.20;;;16.60;;
35506;SDS011;36461;52.018;21.036;2023-03-19T02:36:37;31.10;;;17.40;;
35506;SDS011;36461;52.018;21.036;2023-03-19T02:39:12;30.90;;;16.40;;
35506;SDS011;36461;52.018;21.036;2023-03-19T02:41:49;30.80;;;16.80;;
35506;SDS011;36461;52.018;21.036;2023-03-19T02:44:20;29.00;;;16.70;;
35506;SDS011;36461;52.018;21.036;2023-03-19T02:46:49;30.00;;;16.40;;
35506;SDS011;36461;52.018;21.036;2023-03-19T02:49:17;31.00;;;16.90;;
35506;SDS011;36461;52.018;21.036;2023-03-19T02:51:45;29.80;;;16.70;;
35506;SDS011;36461;52.018;21.036;2023-03-19T02:54:13;27.40;;;16.10;;
35506;SDS011;36461;52.018;21.036;2023-03-19T02:56:41;27.10;;;15.00;;
35506;SDS011;36461;52.018;21.036;2023-03-19T02:59:09;30.00;;;15.80;;
35506;SDS011;36461;52.018;21.036;2023-03-19T03:01:37;31.20;;;16.00;;
35506;SDS011;36461;52.018;21.036;2023-03-19T03:04:05;26.60;;;15.20;;
35506;SDS011;36461;52.018;21.036;2023-03-19T03:06:33;27.20;;;15.70;;
35506;SDS011;36461;52.018;21.036;2023-03-19T03:09:01;26.70;;;14.90;;
35506;SDS011;36461;52.018;21.036;2023-03-19T03:11:30;26.60;;;14.00;;
35506;SDS011;36461;52.018;21.036;2023-03-19T03:13:58;25.50;;;14.20;;
35506;SDS011;36461;52.018;21.036;2023-03-19T03:16:26;26.00;;;13.80;;
35506;SDS011;36461;52.018;21.036;2023-03-19T03:18:54;27.20;;;14.80;;
35506;SDS011;36461;52.018;21.036;2023-03-19T03:21:22;26.70;;;14.60;;
35506;SDS011;36461;52.018;21.036;2023-03-19T03:23:50;26.60;;;13.60;;
35506;SDS011;36461;52.018;21.036;2023-03-19T03:26:19;26.10;;;14.10;;
35506;SDS011;36461;52.018;21.036;2023-03-19T03:28:47;23.40;;;13.20;;
35506;SDS011;36461;52.018;21.036;2023-03-19T03:31:15;30.40;;;14.80;;
35506;SDS011;36461;52.018;21.036;2023-03-19T03:33:43;27.40;;;14.10;;
35506;SDS011;36461;52.018;21.036;2023-03-19T03:36:12;23.60;;;13.70;;
35506;SDS011;36461;52.018;21.036;2023-03-19T03:38:40;27.20;;;14.60;;
35506;SDS011;36461;52.018;21.036;2023-03-19T03:41:09;23.20;;;13.80;;
35506;SDS011;36461;52.018;21.036;2023-03-19T03:43:37;24.20;;;14.30;;
35506;SDS011;36461;52.018;21.036;2023-03-19T03:46:06;27.10;;;14.50;;
35506;SDS011;36461;52.018;21.036;2023-03-19T03:48:35;22.80;;;13.00;;
35506;SDS011;36461;52.018;21.036;2023-03-19T03:51:03;23.70;;;13.40;;
35506;SDS011;36461;52.018;21.036;2023-03-19T03:53:31;23.10;;;13.20;;
35506;SDS011;36461;52.018;21.036;2023-03-19T03:56:00;20.30;;;12.40;;
35506;SDS011;36461;52.018;21.036;2023-03-19T03:58:29;22.60;;;12.30;;
35506;SDS011;36461;52.018;21.036;2023-03-19T04:00:57;22.00;;;12.50;;
35506;SDS011;36461;52.018;21.036;2023-03-19T04:03:25;24.10;;;13.20;;
35506;SDS011;36461;52.018;21.036;2023-03-19T04:05:54;23.10;;;13.00;;
35506;SDS011;36461;52.018;21.036;2023-03-19T04:08:22;20.70;;;12.60;;
35506;SDS011;36461;52.018;21.036;2023-03-19T04:10:51;23.30;;;12.80;;
35506;SDS011;36461;52.018;21.036;2023-03-19T04:13:19;19.70;;;12.10;;
35506;SDS011;36461;52.018;21.036;2023-03-19T04:15:47;22.00;;;12.30;;
35506;SDS011;36461;52.018;21.036;2023-03-19T04:18:15;22.40;;;12.70;;
35506;SDS011;36461;52.018;21.036;2023-03-19T04:20:44;21.50;;;12.00;;
35506;SDS011;36461;52.018;21.036;2023-03-19T04:23:11;22.70;;;12.60;;
35506;SDS011;36461;52.018;21.036;2023-03-19T04:25:39;19.10;;;11.70;;
35506;SDS011;36461;52.018;21.036;2023-03-19T04:28:10;20.80;;;12.70;;
35506;SDS011;36461;52.018;21.036;2023-03-19T04:30:38;23.10;;;12.70;;
35506;SDS011;36461;52.018;21.036;2023-03-19T04:33:06;23.30;;;13.20;;
35506;SDS011;36461;52.018;21.036;2023-03-19T04:35:34;24.30;;;13.30;;
35506;SDS011;36461;52.018;21.036;2023-03-19T04:38:03;22.40;;;12.60;;
35506;SDS011;36461;52.018;21.036;2023-03-19T04:40:31;24.10;;;13.10;;
35506;SDS011;36461;52.018;21.036;2023-03-19T04:43:00;24.30;;;12.90;;
35506;SDS011;36461;52.018;21.036;2023-03-19T04:45:33;22.90;;;13.00;;
35506;SDS011;36461;52.018;21.036;2023-03-19T04:48:01;21.80;;;12.40;;
35506;SDS011;36461;52.018;21.036;2023-03-19T04:50:30;21.80;;;12.90;;
35506;SDS011;36461;52.018;21.036;2023-03-19T04:52:59;22.10;;;12.50;;
35506;SDS011;36461;52.018;21.036;2023-03-19T04:55:28;21.20;;;12.20;;
35506;SDS011;36461;52.018;21.036;2023-03-19T04:58:06;23.60;;;12.90;;
35506;SDS011;36461;52.018;21.036;2023-03-19T05:00:36;22.30;;;12.80;;
35506;SDS011;36461;52.018;21.036;2023-03-19T05:03:04;22.30;;;12.60;;
35506;SDS011;36461;52.018;21.036;2023-03-19T05:05:33;21.90;;;12.30;;
35506;SDS011;36461;52.018;21.036;2023-03-19T05:08:05;21.40;;;11.60;;
35506;SDS011;36461;52.018;21.036;2023-03-19T05:10:34;21.30;;;13.10;;
35506;SDS011;36461;52.018;21.036;2023-03-19T05:13:04;20.50;;;12.50;;
35506;SDS011;36461;52.018;21.036;2023-03-19T05:15:33;21.20;;;11.90;;
35506;SDS011;36461;52.018;21.036;2023-03-19T05:18:05;22.40;;;12.20;;
35506;SDS011;36461;52.018;21.036;2023-03-19T05:20:38;20.10;;;12.10;;
35506;SDS011;36461;52.018;21.036;2023-03-19T05:23:10;20.20;;;11.40;;
35506;SDS011;36461;52.018;21.036;2023-03-19T05:25:44;22.00;;;12.20;;
35506;SDS011;36461;52.018;21.036;2023-03-19T05:28:15;24.30;;;13.60;;
35506;SDS011;36461;52.018;21.036;2023-03-19T05:30:43;21.30;;;12.50;;
35506;SDS011;36461;52.018;21.036;2023-03-19T05:33:25;23.80;;;12.90;;
35506;SDS011;36461;52.018;21.036;2023-03-19T05:35:53;21.30;;;12.60;;
35506;SDS011;36461;52.018;21.036;2023-03-19T05:38:39;22.70;;;12.20;;
35506;SDS011;36461;52.018;21.036;2023-03-19T05:41:10;26.10;;;12.90;;
35506;SDS011;36461;52.018;21.036;2023-03-19T05:44:01;22.60;;;12.60;;
35506;SDS011;36461;52.018;21.036;2023-03-19T05:49:17;19.60;;;11.50;;
35506;SDS011;36461;52.018;21.036;2023-03-19T05:51:44;22.00;;;12.90;;
35506;SDS011;36461;52.018;21.036;2023-03-19T05:54:13;24.00;;;13.10;;
35506;SDS011;36461;52.018;21.036;2023-03-19T05:57:04;25.80;;;13.80;;
35506;SDS011;36461;52.018;21.036;2023-03-19T05:59:51;23.70;;;12.60;;
35506;SDS011;36461;52.018;21.036;2023-03-19T06:02:40;21.50;;;12.40;;
35506;SDS011;36461;52.018;21.036;2023-03-19T06:05:23;23.10;;;13.20;;
35506;SDS011;36461;52.018;21.036;2023-03-19T06:07:53;23.80;;;12.80;;
35506;SDS011;36461;52.018;21.036;2023-03-19T06:10:26;18.90;;;12.20;;
35506;SDS011;36461;52.018;21.036;2023-03-19T06:12:56;25.10;;;12.60;;
35506;SDS011;36461;52.018;21.036;2023-03-19T06:15:37;23.70;;;13.20;;
35506;SDS011;36461;52.018;21.036;2023-03-19T06:18:35;23.80;;;13.20;;
35506;SDS011;36461;52.018;21.036;2023-03-19T06:21:07;23.60;;;13.30;;
35506;SDS011;36461;52.018;21.036;2023-03-19T06:23:35;21.50;;;12.80;;
35506;SDS011;36461;52.018;21.036;2023-03-19T06:26:04;22.90;;;13.20;;
35506;SDS011;36461;52.018;21.036;2023-03-19T06:28:37;22.70;;;12.90;;
35506;SDS011;36461;52.018;21.036;2023-03-19T06:31:05;22.30;;;12.80;;
35506;SDS011;36461;52.018;21.036;2023-03-19T06:34:06;20.20;;;12.90;;
35506;SDS011;36461;52.018;21.036;2023-03-19T06:36:39;21.60;;;12.60;;
35506;SDS011;36461;52.018;21.036;2023-03-19T06:39:09;24.40;;;12.80;;
35506;SDS011;36461;52.018;21.036;2023-03-19T06:41:37;23.50;;;13.70;;
35506;SDS011;36461;52.018;21.036;2023-03-19T06:44:12;24.20;;;13.40;;
35506;SDS011;36461;52.018;21.036;2023-03-19T06:46:40;20.60;;;13.10;;
35506;SDS011;36461;52.018;21.036;2023-03-19T06:49:08;29.20;;;15.80;;
35506;SDS011;36461;52.018;21.036;2023-03-19T06:51:36;23.50;;;14.60;;
35506;SDS011;36461;52.018;21.036;2023-03-19T06:54:04;24.90;;;14.30;;
35506;SDS011;36461;52.018;21.036;2023-03-19T06:56:32;26.30;;;14.70;;
35506;SDS011;36461;52.018;21.036;2023-03-19T06:59:00;26.40;;;14.80;;
35506;SDS011;36461;52.018;21.036;2023-03-19T07:01:28;24.60;;;14.80;;
35506;SDS011;36461;52.018;21.036;2023-03-19T07:03:56;26.30;;;14.40;;
35506;SDS011;36461;52.018;21.036;2023-03-19T07:06:24;25.40;;;14.50;;
35506;SDS011;36461;52.018;21.036;2023-03-19T07:08:51;23.90;;;13.40;;
35506;SDS011;36461;52.018;21.036;2023-03-19T07:11:19;24.20;;;13.10;;
35506;SDS011;36461;52.018;21.036;2023-03-19T07:13:47;23.90;;;13.40;;
35506;SDS011;36461;52.018;21.036;2023-03-19T07:16:15;22.70;;;14.00;;
35506;SDS011;36461;52.018;21.036;2023-03-19T07:18:43;24.10;;;13.80;;
35506;SDS011;36461;52.018;21.036;2023-03-19T07:21:11;25.70;;;14.30;;
35506;SDS011;36461;52.018;21.036;2023-03-19T07:23:39;22.00;;;13.40;;
35506;SDS011;36461;52.018;21.036;2023-03-19T07:26:08;24.00;;;13.20;;
35506;SDS011;36461;52.018;21.036;2023-03-19T07:28:36;22.90;;;13.50;;
35506;SDS011;36461;52.018;21.036;2023-03-19T07:31:04;23.30;;;14.10;;
35506;SDS011;36461;52.018;21.036;2023-03-19T07:33:33;24.40;;;13.30;;
35506;SDS011;36461;52.018;21.036;2023-03-19T07:36:01;22.00;;;13.00;;
35506;SDS011;36461;52.018;21.036;2023-03-19T07:38:29;25.30;;;14.10;;
35506;SDS011;36461;52.018;21.036;2023-03-19T07:40:57;21.80;;;12.70;;
35506;SDS011;36461;52.018;21.036;2023-03-19T07:43:29;21.40;;;13.00;;
35506;SDS011;36461;52.018;21.036;2023-03-19T07:45:58;22.20;;;13.20;;
35506;SDS011;36461;52.018;21.036;2023-03-19T07:48:26;22.30;;;12.70;;
35506;SDS011;36461;52.018;21.036;2023-03-19T07:50:54;21.70;;;13.10;;
35506;SDS011;36461;52.018;21.036;2023-03-19T07:53:22;18.60;;;12.00;;
35506;SDS011;36461;52.018;21.036;2023-03-19T07:55:50;20.60;;;12.90;;
35506;SDS011;36461;52.018;21.036;2023-03-19T07:58:18;19.30;;;12.10;;
35506;SDS011;36461;52.018;21.036;2023-03-19T08:00:46;21.30;;;12.60;;
35506;SDS011;36461;52.018;21.036;2023-03-19T08:03:15;24.90;;;13.40;;
35506;SDS011;36461;52.018;21.036;2023-03-19T08:05:43;19.20;;;11.70;;
35506;SDS011;36461;52.018;21.036;2023-03-19T08:08:11;19.80;;;12.10;;
35506;SDS011;36461;52.018;21.036;2023-03-19T08:10:39;19.30;;;12.10;;
35506;SDS011;36461;52.018;21.036;2023-03-19T08:13:07;22.10;;;13.10;;
35506;SDS011;36461;52.018;21.036;2023-03-19T08:15:35;18.90;;;11.90;;
35506;SDS011;36461;52.018;21.036;2023-03-19T08:18:03;19.70;;;11.70;;
35506;SDS011;36461;52.018;21.036;2023-03-19T08:20:32;20.40;;;12.20;;
35506;SDS011;36461;52.018;21.036;2023-03-19T08:23:00;20.80;;;12.10;;
35506;SDS011;36461;52.018;21.036;2023-03-19T08:25:28;17.20;;;11.30;;
35506;SDS011;36461;52.018;21.036;2023-03-19T08:27:59;20.70;;;12.40;;
35506;SDS011;36461;52.018;21.036;2023-03-19T08:30:28;20.90;;;12.90;;
35506;SDS011;36461;52.018;21.036;2023-03-19T08:32:56;17.90;;;11.80;;
35506;SDS011;36461;52.018;21.036;2023-03-19T08:35:24;20.20;;;12.70;;
35506;SDS011;36461;52.018;21.036;2023-03-19T08:37:55;18.40;;;11.80;;
35506;SDS011;36461;52.018;21.036;2023-03-19T08:40:23;18.00;;;11.00;;
35506;SDS011;36461;52.018;21.036;2023-03-19T08:42:52;18.50;;;10.20;;
35506;SDS011;36461;52.018;21.036;2023-03-19T08:45:22;18.60;;;11.40;;
35506;SDS011;36461;52.018;21.036;2023-03-19T08:47:50;13.90;;;9.60;;
35506;SDS011;36461;52.018;21.036;2023-03-19T08:50:18;14.40;;;9.10;;
35506;SDS011;36461;52.018;21.036;2023-03-19T08:52:46;15.30;;;9.00;;
35506;SDS011;36461;52.018;21.036;2023-03-19T08:55:14;15.20;;;9.60;;
35506;SDS011;36461;52.018;21.036;2023-03-19T08:57:43;13.70;;;8.80;;
35506;SDS011;36461;52.018;21.036;2023-03-19T09:00:11;13.00;;;8.70;;
35506;SDS011;36461;52.018;21.036;2023-03-19T09:02:40;12.40;;;8.50;;
35506;SDS011;36461;52.018;21.036;2023-03-19T09:05:08;12.10;;;8.70;;
35506;SDS011;36461;52.018;21.036;2023-03-19T09:07:36;10.50;;;7.60;;
35506;SDS011;36461;52.018;21.036;2023-03-19T09:10:04;9.90;;;6.80;;
35506;SDS011;36461;52.018;21.036;2023-03-19T09:12:33;9.90;;;7.20;;
35506;SDS011;36461;52.018;21.036;2023-03-19T09:15:01;11.10;;;7.10;;
35506;SDS011;36461;52.018;21.036;2023-03-19T09:17:30;12.90;;;7.60;;
35506;SDS011;36461;52.018;21.036;2023-03-19T09:19:57;9.70;;;6.70;;
35506;SDS011;36461;52.018;21.036;2023-03-19T09:22:26;11.60;;;7.10;;
35506;SDS011;36461;52.018;21.036;2023-03-19T09:24:53;9.30;;;7.00;;
35506;SDS011;36461;52.018;21.036;2023-03-19T09:27:21;10.90;;;6.90;;
35506;SDS011;36461;52.018;21.036;2023-03-19T09:29:50;10.50;;;7.40;;
35506;SDS011;36461;52.018;21.036;2023-03-19T09:32:18;10.50;;;7.20;;
35506;SDS011;36461;52.018;21.036;2023-03-19T09:34:46;10.30;;;6.60;;
35506;SDS011;36461;52.018;21.036;2023-03-19T09:37:14;8.50;;;6.20;;
35506;SDS011;36461;52.018;21.036;2023-03-19T09:39:42;9.10;;;6.70;;
35506;SDS011;36461;52.018;21.036;2023-03-19T09:42:16;11.60;;;6.90;;
35506;SDS011;36461;52.018;21.036;2023-03-19T09:44:55;9.90;;;6.70;;
35506;SDS011;36461;52.018;21.036;2023-03-19T09:47:25;9.70;;;6.40;;
35506;SDS011;36461;52.018;21.036;2023-03-19T09:49:58;7.80;;;6.20;;
35506;SDS011;36461;52.018;21.036;2023-03-19T09:57:55;9.90;;;6.60;;
35506;SDS011;36461;52.018;21.036;2023-03-19T10:00:26;9.50;;;6.60;;
35506;SDS011;36461;52.018;21.036;2023-03-19T10:03:05;8.30;;;6.50;;
35506;SDS011;36461;52.018;21.036;2023-03-19T10:05:43;8.90;;;6.50;;
35506;SDS011;36461;52.018;21.036;2023-03-19T10:13:53;9.80;;;6.90;;
35506;SDS011;36461;52.018;21.036;2023-03-19T10:16:28;9.40;;;6.80;;
35506;SDS011;36461;52.018;21.036;2023-03-19T10:18:58;10.40;;;6.70;;
35506;SDS011;36461;52.018;21.036;2023-03-19T10:24:35;8.70;;;6.70;;
35506;SDS011;36461;52.018;21.036;2023-03-19T10:27:17;10.50;;;7.60;;
35506;SDS011;36461;52.018;21.036;2023-03-19T10:29:47;11.80;;;7.00;;
35506;SDS011;36461;52.018;21.036;2023-03-19T10:35:17;10.60;;;7.70;;
35506;SDS011;36461;52.018;21.036;2023-03-19T10:37:51;13.00;;;7.60;;
35506;SDS011;36461;52.018;21.036;2023-03-19T10:40:31;10.00;;;7.50;;
35506;SDS011;36461;52.018;21.036;2023-03-19T10:43:25;12.10;;;8.50;;
35506;SDS011;36461;52.018;21.036;2023-03-19T10:45:55;12.80;;;7.90;;
35506;SDS011;36461;52.018;21.036;2023-03-19T10:48:25;10.40;;;7.10;;
35506;SDS011;36461;52.018;21.036;2023-03-19T10:50:58;10.60;;;7.70;;
35506;SDS011;36461;52.018;21.036;2023-03-19T10:53:29;10.60;;;7.30;;
35506;SDS011;36461;52.018;21.036;2023-03-19T10:56:06;11.60;;;7.70;;
35506;SDS011;36461;52.018;21.036;2023-03-19T10:58:57;9.70;;;7.30;;
35506;SDS011;36461;52.018;21.036;2023-03-19T11:01:31;14.80;;;9.50;;
35506;SDS011;36461;52.018;21.036;2023-03-19T11:04:02;16.70;;;10.00;;
35506;SDS011;36461;52.018;21.036;2023-03-19T11:06:39;12.80;;;8.00;;
35506;SDS011;36461;52.018;21.036;2023-03-19T11:14:30;11.20;;;7.40;;
35506;SDS011;36461;52.018;21.036;2023-03-19T11:19:38;10.20;;;7.20;;
35506;SDS011;36461;52.018;21.036;2023-03-19T11:22:12;9.90;;;7.10;;
35506;SDS011;36461;52.018;21.036;2023-03-19T11:24:59;10.20;;;7.90;;
35506;SDS011;36461;52.018;21.036;2023-03-19T11:27:30;9.10;;;6.60;;
35506;SDS011;36461;52.018;21.036;2023-03-19T11:30:02;12.00;;;7.10;;
35506;SDS011;36461;52.018;21.036;2023-03-19T11:32:54;11.40;;;7.20;;
35506;SDS011;36461;52.018;21.036;2023-03-19T11:35:36;11.10;;;7.10;;
35506;SDS011;36461;52.018;21.036;2023-03-19T11:38:11;11.40;;;7.90;;
35506;SDS011;36461;52.018;21.036;2023-03-19T11:41:24;11.50;;;6.90;;
35506;SDS011;36461;52.018;21.036;2023-03-19T11:52:10;11.20;;;7.60;;
35506;SDS011;36461;52.018;21.036;2023-03-19T11:55:02;9.80;;;6.80;;
35506;SDS011;36461;52.018;21.036;2023-03-19T12:00:52;9.10;;;6.50;;
35506;SDS011;36461;52.018;21.036;2023-03-19T12:03:45;9.60;;;6.50;;
35506;SDS011;36461;52.018;21.036;2023-03-19T12:06:23;10.20;;;6.90;;
35506;SDS011;36461;52.018;21.036;2023-03-19T12:08:57;9.80;;;6.30;;
35506;SDS011;36461;52.018;21.036;2023-03-19T12:14:03;9.70;;;7.10;;
35506;SDS011;36461;52.018;21.036;2023-03-19T12:16:39;9.30;;;7.00;;
35506;SDS011;36461;52.018;21.036;2023-03-19T12:30:23;11.20;;;6.60;;
35506;SDS011;36461;52.018;21.036;2023-03-19T12:35:40;9.10;;;6.60;;
35506;SDS011;36461;52.018;21.036;2023-03-19T12:38:20;10.10;;;6.20;;
35506;SDS011;36461;52.018;21.036;2023-03-19T12:40:58;9.00;;;6.00;;
35506;SDS011;36461;52.018;21.036;2023-03-19T12:43:35;8.30;;;6.10;;
35506;SDS011;36461;52.018;21.036;2023-03-19T12:46:12;8.60;;;5.90;;
35506;SDS011;36461;52.018;21.036;2023-03-19T12:51:16;8.80;;;6.30;;
35506;SDS011;36461;52.018;21.036;2023-03-19T12:53:51;7.80;;;5.60;;
35506;SDS011;36461;52.018;21.036;2023-03-19T12:56:38;11.40;;;6.50;;
35506;SDS011;36461;52.018;21.036;2023-03-19T12:59:14;8.80;;;5.90;;
35506;SDS011;36461;52.018;21.036;2023-03-19T13:02:03;7.40;;;5.70;;
35506;SDS011;36461;52.018;21.036;2023-03-19T13:04:37;8.00;;;6.00;;
35506;SDS011;36461;52.018;21.036;2023-03-19T13:07:19;9.50;;;6.30;;
35506;SDS011;36461;52.018;21.036;2023-03-19T13:09:57;9.30;;;5.70;;
35506;SDS011;36461;52.018;21.036;2023-03-19T13:12:33;9.30;;;6.00;;
35506;SDS011;36461;52.018;21.036;2023-03-19T13:15:06;12.00;;;6.10;;
35506;SDS011;36461;52.018;21.036;2023-03-19T13:23:04;8.60;;;6.30;;
35506;SDS011;36461;52.018;21.036;2023-03-19T13:25:36;7.60;;;5.70;;
35506;SDS011;36461;52.018;21.036;2023-03-19T13:28:11;7.80;;;5.70;;
35506;SDS011;36461;52.018;21.036;2023-03-19T13:31:03;7.50;;;6.10;;
35506;SDS011;36461;52.018;21.036;2023-03-19T13:33:36;7.90;;;6.00;;
35506;SDS011;36461;52.018;21.036;2023-03-19T13:36:06;9.40;;;6.20;;
35506;SDS011;36461;52.018;21.036;2023-03-19T13:38:48;8.50;;;6.10;;
35506;SDS011;36461;52.018;21.036;2023-03-19T13:46:49;7.20;;;5.70;;
35506;SDS011;36461;52.018;21.036;2023-03-19T13:51:48;9.70;;;5.70;;
35506;SDS011;36461;52.018;21.036;2023-03-19T13:54:18;10.20;;;5.60;;
35506;SDS011;36461;52.018;21.036;2023-03-19T13:59:35;8.00;;;5.40;;
35506;SDS011;36461;52.018;21.036;2023-03-19T14:07:34;7.50;;;5.00;;
35506;SDS011;36461;52.018;21.036;2023-03-19T14:12:59;7.10;;;5.20;;
35506;SDS011;36461;52.018;21.036;2023-03-19T14:15:46;7.70;;;5.20;;
35506;SDS011;36461;52.018;21.036;2023-03-19T14:18:17;7.30;;;5.20;;
35506;SDS011;36461;52.018;21.036;2023-03-19T14:23:38;6.80;;;5.50;;
35506;SDS011;36461;52.018;21.036;2023-03-19T14:26:15;7.00;;;5.30;;
35506;SDS011;36461;52.018;21.036;2023-03-19T14:29:03;7.40;;;5.60;;
35506;SDS011;36461;52.018;21.036;2023-03-19T14:31:39;8.00;;;5.10;;
35506;SDS011;36461;52.018;21.036;2023-03-19T14:34:17;7.00;;;4.90;;
35506;SDS011;36461;52.018;21.036;2023-03-19T14:39:54;6.80;;;4.60;;
35506;SDS011;36461;52.018;21.036;2023-03-19T14:42:31;6.80;;;4.80;;
35506;SDS011;36461;52.018;21.036;2023-03-19T14:47:51;10.10;;;4.60;;
35506;SDS011;36461;52.018;21.036;2023-03-19T14:50:48;6.80;;;5.10;;
35506;SDS011;36461;52.018;21.036;2023-03-19T14:59:03;6.60;;;4.70;;
35506;SDS011;36461;52.018;21.036;2023-03-19T15:01:33;6.90;;;5.00;;
35506;SDS011;36461;52.018;21.036;2023-03-19T15:04:08;6.90;;;4.90;;
35506;SDS011;36461;52.018;21.036;2023-03-19T15:06:40;6.00;;;4.60;;
35506;SDS011;36461;52.018;21.036;2023-03-19T15:09:26;7.20;;;5.30;;
35506;SDS011;36461;52.018;21.036;2023-03-19T15:17:24;9.40;;;4.90;;
35506;SDS011;36461;52.018;21.036;2023-03-19T15:19:57;6.10;;;4.30;;
35506;SDS011;36461;52.018;21.036;2023-03-19T15:22:31;6.90;;;4.60;;
35506;SDS011;36461;52.018;21.036;2023-03-19T15:25:11;6.60;;;5.00;;
35506;SDS011;36461;52.018;21.036;2023-03-19T15:27:41;6.90;;;5.00;;
35506;SDS011;36461;52.018;21.036;2023-03-19T15:30:20;6.30;;;4.60;;
35506;SDS011;36461;52.018;21.036;2023-03-19T15:32:51;6.80;;;4.90;;
35506;SDS011;36461;52.018;21.036;2023-03-19T15:35:37;6.60;;;4.90;;
35506;SDS011;36461;52.018;21.036;2023-03-19T15:38:06;6.00;;;4.60;;
35506;SDS011;36461;52.018;21.036;2023-03-19T15:40:37;5.60;;;4.10;;
35506;SDS011;36461;52.018;21.036;2023-03-19T15:43:08;7.00;;;4.60;;
35506;SDS011;36461;52.018;21.036;2023-03-19T15:45:40;6.10;;;4.60;;
35506;SDS011;36461;52.018;21.036;2023-03-19T15:48:20;7.70;;;4.80;;
35506;SDS011;36461;52.018;21.036;2023-03-19T15:51:02;7.20;;;4.60;;
35506;SDS011;36461;52.018;21.036;2023-03-19T15:53:33;6.90;;;4.70;;
35506;SDS011;36461;52.018;21.036;2023-03-19T15:56:03;7.60;;;4.90;;
35506;SDS011;36461;52.018;21.036;2023-03-19T15:58:35;10.90;;;6.00;;
35506;SDS011;36461;52.018;21.036;2023-03-19T16:01:07;11.70;;;6.30;;
35506;SDS011;36461;52.018;21.036;2023-03-19T16:06:25;13.90;;;7.20;;
35506;SDS011;36461;52.018;21.036;2023-03-19T16:11:40;25.80;;;13.20;;
35506;SDS011;36461;52.018;21.036;2023-03-19T16:16:44;24.50;;;12.50;;
35506;SDS011;36461;52.018;21.036;2023-03-19T16:19:26;24.60;;;12.30;;
35506;SDS011;36461;52.018;21.036;2023-03-19T16:21:55;22.60;;;12.40;;
35506;SDS011;36461;52.018;21.036;2023-03-19T16:26:57;19.60;;;11.80;;
35506;SDS011;36461;52.018;21.036;2023-03-19T16:30:11;22.10;;;12.40;;
35506;SDS011;36461;52.018;21.036;2023-03-19T16:32:25;19.70;;;12.20;;
35506;SDS011;36461;52.018;21.036;2023-03-19T16:35:02;17.70;;;10.80;;
35506;SDS011;36461;52.018;21.036;2023-03-19T16:40:33;21.70;;;12.60;;
35506;SDS011;36461;52.018;21.036;2023-03-19T16:42:55;20.70;;;12.70;;
35506;SDS011;36461;52.018;21.036;2023-03-19T16:45:33;24.80;;;13.30;;
35506;SDS011;36461;52.018;21.036;2023-03-19T16:48:02;20.90;;;12.80;;